sensor_id;sensor_type;location;lat;lon;timestamp;P1;durP1;ratioP1;P2;durP2;ratioP2
62941;SDS011;49042;47.318;19.874;2024-01-16T00:02:37;9.90;;;5.60;;
62941;SDS011;49042;47.318;19.874;2024-01-16T00:05:39;8.98;;;4.97;;
62941;SDS011;49042;47.318;19.874;2024-01-16T00:08:41;8.00;;;5.05;;
62941;SDS011;49042;47.318;19.874;2024-01-16T00:11:43;8.30;;;4.40;;
62941;SDS011;49042;47.318;19.874;2024-01-16T00:14:45;9.35;;;4.35;;
62941;SDS011;49042;47.318;19.874;2024-01-16T00:17:47;6.90;;;4.55;;
62941;SDS011;49042;47.318;19.874;2024-01-16T00:20:49;9.32;;;4.25;;
62941;SDS011;49042;47.318;19.874;2024-01-16T00:23:51;8.77;;;5.05;;
62941;SDS011;49042;47.318;19.874;2024-01-16T00:26:53;7.95;;;4.37;;
62941;SDS011;49042;47.318;19.874;2024-01-16T00:29:54;9.02;;;4.82;;
62941;SDS011;49042;47.318;19.874;2024-01-16T00:32:56;8.90;;;4.70;;
62941;SDS011;49042;47.318;19.874;2024-01-16T00:35:58;6.32;;;4.78;;
62941;SDS011;49042;47.318;19.874;2024-01-16T00:39:00;6.37;;;4.40;;
62941;SDS011;49042;47.318;19.874;2024-01-16T00:42:02;7.18;;;4.75;;
62941;SDS011;49042;47.318;19.874;2024-01-16T00:45:04;6.35;;;4.20;;
62941;SDS011;49042;47.318;19.874;2024-01-16T00:48:06;5.68;;;4.37;;
62941;SDS011;49042;47.318;19.874;2024-01-16T00:51:10;9.88;;;4.65;;
62941;SDS011;49042;47.318;19.874;2024-01-16T00:54:12;7.15;;;4.40;;
62941;SDS011;49042;47.318;19.874;2024-01-16T00:57:15;5.97;;;4.55;;
62941;SDS011;49042;47.318;19.874;2024-01-16T01:00:20;7.03;;;4.50;;
62941;SDS011;49042;47.318;19.874;2024-01-16T01:03:22;8.73;;;5.12;;
62941;SDS011;49042;47.318;19.874;2024-01-16T01:06:23;7.65;;;4.90;;
62941;SDS011;49042;47.318;19.874;2024-01-16T01:09:25;8.00;;;5.50;;
62941;SDS011;49042;47.318;19.874;2024-01-16T01:12:27;9.95;;;5.93;;
62941;SDS011;49042;47.318;19.874;2024-01-16T01:15:29;11.30;;;5.85;;
62941;SDS011;49042;47.318;19.874;2024-01-16T01:18:31;11.23;;;6.03;;
62941;SDS011;49042;47.318;19.874;2024-01-16T01:21:33;11.27;;;6.80;;
62941;SDS011;49042;47.318;19.874;2024-01-16T01:24:37;11.68;;;6.72;;
62941;SDS011;49042;47.318;19.874;2024-01-16T01:27:38;7.80;;;5.72;;
62941;SDS011;49042;47.318;19.874;2024-01-16T01:30:40;8.55;;;6.12;;
62941;SDS011;49042;47.318;19.874;2024-01-16T01:33:42;11.32;;;6.22;;
62941;SDS011;49042;47.318;19.874;2024-01-16T01:36:44;8.38;;;5.90;;
62941;SDS011;49042;47.318;19.874;2024-01-16T01:39:46;10.40;;;6.82;;
62941;SDS011;49042;47.318;19.874;2024-01-16T01:42:48;9.25;;;5.53;;
62941;SDS011;49042;47.318;19.874;2024-01-16T01:46:08;8.50;;;6.20;;
62941;SDS011;49042;47.318;19.874;2024-01-16T01:49:13;10.93;;;5.87;;
62941;SDS011;49042;47.318;19.874;2024-01-16T01:52:17;8.48;;;5.95;;
62941;SDS011;49042;47.318;19.874;2024-01-16T01:55:19;7.62;;;5.60;;
62941;SDS011;49042;47.318;19.874;2024-01-16T01:58:21;9.27;;;6.05;;
62941;SDS011;49042;47.318;19.874;2024-01-16T02:01:24;7.32;;;5.05;;
62941;SDS011;49042;47.318;19.874;2024-01-16T02:04:28;7.93;;;4.50;;
62941;SDS011;49042;47.318;19.874;2024-01-16T02:07:32;7.87;;;4.93;;
62941;SDS011;49042;47.318;19.874;2024-01-16T02:10:36;7.25;;;4.93;;
62941;SDS011;49042;47.318;19.874;2024-01-16T02:13:41;6.97;;;4.57;;
62941;SDS011;49042;47.318;19.874;2024-01-16T02:16:43;7.45;;;4.18;;
62941;SDS011;49042;47.318;19.874;2024-01-16T02:19:48;6.85;;;4.53;;
62941;SDS011;49042;47.318;19.874;2024-01-16T02:22:50;6.15;;;4.30;;
62941;SDS011;49042;47.318;19.874;2024-01-16T02:25:55;8.10;;;4.40;;
62941;SDS011;49042;47.318;19.874;2024-01-16T02:28:57;7.75;;;4.55;;
62941;SDS011;49042;47.318;19.874;2024-01-16T02:31:58;6.20;;;3.70;;
62941;SDS011;49042;47.318;19.874;2024-01-16T02:35:00;7.55;;;4.07;;
62941;SDS011;49042;47.318;19.874;2024-01-16T02:38:02;5.20;;;4.10;;
62941;SDS011;49042;47.318;19.874;2024-01-16T02:41:04;5.95;;;4.12;;
62941;SDS011;49042;47.318;19.874;2024-01-16T02:44:05;6.95;;;4.57;;
62941;SDS011;49042;47.318;19.874;2024-01-16T02:47:07;5.50;;;4.15;;
62941;SDS011;49042;47.318;19.874;2024-01-16T02:50:09;8.48;;;4.90;;
62941;SDS011;49042;47.318;19.874;2024-01-16T02:53:11;7.65;;;4.80;;
62941;SDS011;49042;47.318;19.874;2024-01-16T02:56:13;5.35;;;3.65;;
62941;SDS011;49042;47.318;19.874;2024-01-16T02:59:15;5.60;;;3.75;;
62941;SDS011;49042;47.318;19.874;2024-01-16T03:02:17;5.30;;;3.83;;
62941;SDS011;49042;47.318;19.874;2024-01-16T03:05:18;5.97;;;4.20;;
62941;SDS011;49042;47.318;19.874;2024-01-16T03:08:20;7.50;;;4.18;;
62941;SDS011;49042;47.318;19.874;2024-01-16T03:11:22;6.22;;;4.10;;
62941;SDS011;49042;47.318;19.874;2024-01-16T03:14:24;6.18;;;4.12;;
62941;SDS011;49042;47.318;19.874;2024-01-16T03:17:26;6.28;;;3.72;;
62941;SDS011;49042;47.318;19.874;2024-01-16T03:20:28;7.37;;;4.53;;
62941;SDS011;49042;47.318;19.874;2024-01-16T03:23:30;7.20;;;4.25;;
62941;SDS011;49042;47.318;19.874;2024-01-16T03:26:32;6.87;;;4.50;;
62941;SDS011;49042;47.318;19.874;2024-01-16T03:29:34;7.53;;;4.72;;
62941;SDS011;49042;47.318;19.874;2024-01-16T03:32:37;7.35;;;4.20;;
62941;SDS011;49042;47.318;19.874;2024-01-16T03:35:40;6.65;;;4.72;;
62941;SDS011;49042;47.318;19.874;2024-01-16T03:38:42;9.63;;;5.32;;
62941;SDS011;49042;47.318;19.874;2024-01-16T03:41:45;10.70;;;5.25;;
62941;SDS011;49042;47.318;19.874;2024-01-16T03:44:46;8.73;;;5.15;;
62941;SDS011;49042;47.318;19.874;2024-01-16T03:47:48;7.15;;;5.18;;
62941;SDS011;49042;47.318;19.874;2024-01-16T03:50:51;8.10;;;4.80;;
62941;SDS011;49042;47.318;19.874;2024-01-16T03:53:55;8.48;;;5.30;;
62941;SDS011;49042;47.318;19.874;2024-01-16T03:56:57;9.13;;;5.32;;
62941;SDS011;49042;47.318;19.874;2024-01-16T03:59:59;8.18;;;5.87;;
62941;SDS011;49042;47.318;19.874;2024-01-16T04:03:01;8.85;;;5.78;;
62941;SDS011;49042;47.318;19.874;2024-01-16T04:06:02;10.43;;;6.20;;
62941;SDS011;49042;47.318;19.874;2024-01-16T04:09:05;13.98;;;7.00;;
62941;SDS011;49042;47.318;19.874;2024-01-16T04:12:07;11.70;;;6.43;;
62941;SDS011;49042;47.318;19.874;2024-01-16T04:15:09;13.57;;;7.15;;
62941;SDS011;49042;47.318;19.874;2024-01-16T04:18:11;12.50;;;7.80;;
62941;SDS011;49042;47.318;19.874;2024-01-16T04:21:13;11.38;;;7.87;;
62941;SDS011;49042;47.318;19.874;2024-01-16T04:24:18;18.25;;;8.98;;
62941;SDS011;49042;47.318;19.874;2024-01-16T04:27:19;16.65;;;8.93;;
62941;SDS011;49042;47.318;19.874;2024-01-16T04:30:21;15.00;;;8.65;;
62941;SDS011;49042;47.318;19.874;2024-01-16T04:33:23;12.48;;;8.25;;
62941;SDS011;49042;47.318;19.874;2024-01-16T04:36:25;14.35;;;9.40;;
62941;SDS011;49042;47.318;19.874;2024-01-16T04:39:27;14.27;;;8.40;;
62941;SDS011;49042;47.318;19.874;2024-01-16T04:42:28;15.20;;;8.68;;
62941;SDS011;49042;47.318;19.874;2024-01-16T04:45:30;14.77;;;9.15;;
62941;SDS011;49042;47.318;19.874;2024-01-16T04:48:32;15.75;;;9.65;;
62941;SDS011;49042;47.318;19.874;2024-01-16T04:51:34;16.62;;;9.00;;
62941;SDS011;49042;47.318;19.874;2024-01-16T04:54:36;14.20;;;8.32;;
62941;SDS011;49042;47.318;19.874;2024-01-16T04:57:38;13.38;;;8.50;;
62941;SDS011;49042;47.318;19.874;2024-01-16T05:00:40;13.82;;;8.27;;
62941;SDS011;49042;47.318;19.874;2024-01-16T05:03:41;10.23;;;6.90;;
62941;SDS011;49042;47.318;19.874;2024-01-16T05:06:43;10.80;;;6.87;;
62941;SDS011;49042;47.318;19.874;2024-01-16T05:09:46;9.73;;;6.78;;
62941;SDS011;49042;47.318;19.874;2024-01-16T05:12:48;9.80;;;6.37;;
62941;SDS011;49042;47.318;19.874;2024-01-16T05:15:50;9.13;;;6.05;;
62941;SDS011;49042;47.318;19.874;2024-01-16T05:18:52;9.48;;;6.65;;
62941;SDS011;49042;47.318;19.874;2024-01-16T05:21:55;10.57;;;6.90;;
62941;SDS011;49042;47.318;19.874;2024-01-16T05:24:59;8.20;;;5.53;;
62941;SDS011;49042;47.318;19.874;2024-01-16T05:28:02;10.55;;;6.07;;
62941;SDS011;49042;47.318;19.874;2024-01-16T05:31:04;8.77;;;5.93;;
62941;SDS011;49042;47.318;19.874;2024-01-16T05:34:06;9.60;;;5.10;;
62941;SDS011;49042;47.318;19.874;2024-01-16T05:37:08;12.98;;;7.25;;
62941;SDS011;49042;47.318;19.874;2024-01-16T05:40:10;9.75;;;6.28;;
62941;SDS011;49042;47.318;19.874;2024-01-16T05:43:12;11.57;;;6.78;;
62941;SDS011;49042;47.318;19.874;2024-01-16T05:46:14;9.30;;;5.75;;
62941;SDS011;49042;47.318;19.874;2024-01-16T05:49:16;9.55;;;6.55;;
62941;SDS011;49042;47.318;19.874;2024-01-16T05:52:18;11.23;;;6.75;;
62941;SDS011;49042;47.318;19.874;2024-01-16T05:55:19;9.02;;;6.60;;
62941;SDS011;49042;47.318;19.874;2024-01-16T05:58:23;8.73;;;6.05;;
62941;SDS011;49042;47.318;19.874;2024-01-16T06:01:24;10.50;;;5.87;;
62941;SDS011;49042;47.318;19.874;2024-01-16T06:04:26;10.90;;;5.50;;
62941;SDS011;49042;47.318;19.874;2024-01-16T06:07:28;7.37;;;5.43;;
62941;SDS011;49042;47.318;19.874;2024-01-16T06:10:30;8.88;;;5.75;;
62941;SDS011;49042;47.318;19.874;2024-01-16T06:13:31;8.25;;;5.78;;
62941;SDS011;49042;47.318;19.874;2024-01-16T06:16:34;8.65;;;6.25;;
62941;SDS011;49042;47.318;19.874;2024-01-16T06:19:36;8.30;;;5.85;;
62941;SDS011;49042;47.318;19.874;2024-01-16T06:22:38;10.65;;;6.15;;
62941;SDS011;49042;47.318;19.874;2024-01-16T06:25:39;9.57;;;6.37;;
62941;SDS011;49042;47.318;19.874;2024-01-16T06:28:41;11.27;;;6.37;;
62941;SDS011;49042;47.318;19.874;2024-01-16T06:31:45;10.30;;;6.40;;
62941;SDS011;49042;47.318;19.874;2024-01-16T06:34:47;12.35;;;6.68;;
62941;SDS011;49042;47.318;19.874;2024-01-16T06:37:49;11.10;;;6.78;;
62941;SDS011;49042;47.318;19.874;2024-01-16T06:40:51;13.35;;;7.03;;
62941;SDS011;49042;47.318;19.874;2024-01-16T06:43:52;11.32;;;7.10;;
62941;SDS011;49042;47.318;19.874;2024-01-16T06:46:54;13.55;;;6.85;;
62941;SDS011;49042;47.318;19.874;2024-01-16T06:49:56;11.00;;;5.97;;
62941;SDS011;49042;47.318;19.874;2024-01-16T06:52:57;11.85;;;6.55;;
62941;SDS011;49042;47.318;19.874;2024-01-16T06:55:59;12.15;;;6.07;;
62941;SDS011;49042;47.318;19.874;2024-01-16T06:59:01;10.10;;;6.40;;
62941;SDS011;49042;47.318;19.874;2024-01-16T07:02:03;8.15;;;5.65;;
62941;SDS011;49042;47.318;19.874;2024-01-16T07:05:05;12.00;;;6.72;;
62941;SDS011;49042;47.318;19.874;2024-01-16T07:08:07;15.15;;;8.00;;
62941;SDS011;49042;47.318;19.874;2024-01-16T07:11:09;11.52;;;6.82;;
62941;SDS011;49042;47.318;19.874;2024-01-16T07:14:14;9.70;;;6.25;;
62941;SDS011;49042;47.318;19.874;2024-01-16T07:17:16;11.07;;;6.25;;
62941;SDS011;49042;47.318;19.874;2024-01-16T07:20:18;11.60;;;6.22;;
62941;SDS011;49042;47.318;19.874;2024-01-16T07:23:20;13.40;;;5.97;;
62941;SDS011;49042;47.318;19.874;2024-01-16T07:26:22;12.77;;;5.75;;
62941;SDS011;49042;47.318;19.874;2024-01-16T07:29:24;9.13;;;5.60;;
62941;SDS011;49042;47.318;19.874;2024-01-16T07:32:26;9.77;;;5.62;;
62941;SDS011;49042;47.318;19.874;2024-01-16T07:35:31;9.65;;;5.00;;
62941;SDS011;49042;47.318;19.874;2024-01-16T07:38:33;7.82;;;4.93;;
62941;SDS011;49042;47.318;19.874;2024-01-16T07:41:35;7.65;;;4.10;;
62941;SDS011;49042;47.318;19.874;2024-01-16T07:44:37;10.93;;;4.37;;
62941;SDS011;49042;47.318;19.874;2024-01-16T07:47:39;9.70;;;6.32;;
62941;SDS011;49042;47.318;19.874;2024-01-16T07:50:40;42.10;;;18.70;;
62941;SDS011;49042;47.318;19.874;2024-01-16T07:53:42;19.75;;;10.32;;
62941;SDS011;49042;47.318;19.874;2024-01-16T07:56:44;18.73;;;8.65;;
62941;SDS011;49042;47.318;19.874;2024-01-16T07:59:46;10.18;;;5.47;;
62941;SDS011;49042;47.318;19.874;2024-01-16T08:02:48;73.65;;;37.75;;
62941;SDS011;49042;47.318;19.874;2024-01-16T08:05:50;19.92;;;10.82;;
62941;SDS011;49042;47.318;19.874;2024-01-16T08:08:52;18.80;;;10.35;;
62941;SDS011;49042;47.318;19.874;2024-01-16T08:11:54;10.57;;;5.20;;
62941;SDS011;49042;47.318;19.874;2024-01-16T08:14:56;10.57;;;6.55;;
62941;SDS011;49042;47.318;19.874;2024-01-16T08:17:58;7.18;;;4.60;;
62941;SDS011;49042;47.318;19.874;2024-01-16T08:21:00;12.32;;;7.03;;
62941;SDS011;49042;47.318;19.874;2024-01-16T08:24:02;18.73;;;10.77;;
62941;SDS011;49042;47.318;19.874;2024-01-16T08:27:03;51.80;;;28.75;;
62941;SDS011;49042;47.318;19.874;2024-01-16T08:30:05;19.25;;;10.90;;
62941;SDS011;49042;47.318;19.874;2024-01-16T08:33:08;16.00;;;8.38;;
62941;SDS011;49042;47.318;19.874;2024-01-16T08:36:11;26.33;;;9.95;;
62941;SDS011;49042;47.318;19.874;2024-01-16T08:39:13;16.25;;;6.37;;
62941;SDS011;49042;47.318;19.874;2024-01-16T08:42:15;8.27;;;5.12;;
62941;SDS011;49042;47.318;19.874;2024-01-16T08:45:17;10.27;;;5.70;;
62941;SDS011;49042;47.318;19.874;2024-01-16T08:48:19;10.57;;;4.87;;
62941;SDS011;49042;47.318;19.874;2024-01-16T08:51:20;12.80;;;4.40;;
62941;SDS011;49042;47.318;19.874;2024-01-16T08:54:22;17.52;;;4.55;;
62941;SDS011;49042;47.318;19.874;2024-01-16T08:57:24;9.32;;;5.20;;
62941;SDS011;49042;47.318;19.874;2024-01-16T09:00:28;7.87;;;4.32;;
62941;SDS011;49042;47.318;19.874;2024-01-16T09:03:31;5.72;;;3.92;;
62941;SDS011;49042;47.318;19.874;2024-01-16T09:06:33;6.40;;;4.22;;
62941;SDS011;49042;47.318;19.874;2024-01-16T09:09:36;10.48;;;2.95;;
62941;SDS011;49042;47.318;19.874;2024-01-16T09:12:37;9.90;;;2.80;;
62941;SDS011;49042;47.318;19.874;2024-01-16T09:15:39;9.32;;;2.95;;
62941;SDS011;49042;47.318;19.874;2024-01-16T09:18:41;19.08;;;3.60;;
62941;SDS011;49042;47.318;19.874;2024-01-16T09:21:42;6.57;;;3.00;;
62941;SDS011;49042;47.318;19.874;2024-01-16T09:24:44;5.20;;;2.47;;
62941;SDS011;49042;47.318;19.874;2024-01-16T09:27:46;7.80;;;2.87;;
62941;SDS011;49042;47.318;19.874;2024-01-16T09:30:48;10.63;;;3.22;;
62941;SDS011;49042;47.318;19.874;2024-01-16T09:33:49;4.60;;;2.60;;
62941;SDS011;49042;47.318;19.874;2024-01-16T09:36:51;19.77;;;3.70;;
62941;SDS011;49042;47.318;19.874;2024-01-16T09:39:53;10.55;;;3.67;;
62941;SDS011;49042;47.318;19.874;2024-01-16T09:42:55;10.77;;;3.58;;
62941;SDS011;49042;47.318;19.874;2024-01-16T09:45:57;3.67;;;2.47;;
62941;SDS011;49042;47.318;19.874;2024-01-16T09:49:03;22.20;;;3.25;;
62941;SDS011;49042;47.318;19.874;2024-01-16T09:52:06;16.92;;;3.50;;
62941;SDS011;49042;47.318;19.874;2024-01-16T09:55:07;11.20;;;2.85;;
62941;SDS011;49042;47.318;19.874;2024-01-16T09:58:11;14.20;;;2.58;;
62941;SDS011;49042;47.318;19.874;2024-01-16T10:01:15;27.58;;;2.72;;
62941;SDS011;49042;47.318;19.874;2024-01-16T10:04:17;28.50;;;6.45;;
62941;SDS011;49042;47.318;19.874;2024-01-16T10:07:19;5.62;;;2.62;;
62941;SDS011;49042;47.318;19.874;2024-01-16T10:10:27;19.65;;;5.43;;
62941;SDS011;49042;47.318;19.874;2024-01-16T10:13:46;24.80;;;8.00;;
62941;SDS011;49042;47.318;19.874;2024-01-16T10:17:02;13.95;;;4.20;;
62941;SDS011;49042;47.318;19.874;2024-01-16T10:20:11;15.75;;;8.02;;
62941;SDS011;49042;47.318;19.874;2024-01-16T10:26:24;33.97;;;5.47;;
62941;SDS011;49042;47.318;19.874;2024-01-16T10:29:26;9.18;;;5.45;;
62941;SDS011;49042;47.318;19.874;2024-01-16T10:32:43;3.12;;;2.45;;
62941;SDS011;49042;47.318;19.874;2024-01-16T10:35:45;18.52;;;3.28;;
62941;SDS011;49042;47.318;19.874;2024-01-16T10:38:47;4.35;;;2.60;;
62941;SDS011;49042;47.318;19.874;2024-01-16T10:41:56;4.07;;;2.20;;
62941;SDS011;49042;47.318;19.874;2024-01-16T10:44:59;5.50;;;2.80;;
62941;SDS011;49042;47.318;19.874;2024-01-16T10:48:01;3.83;;;2.30;;
62941;SDS011;49042;47.318;19.874;2024-01-16T10:54:13;6.45;;;2.55;;
62941;SDS011;49042;47.318;19.874;2024-01-16T10:57:15;5.95;;;2.55;;
62941;SDS011;49042;47.318;19.874;2024-01-16T11:00:19;8.27;;;2.60;;
62941;SDS011;49042;47.318;19.874;2024-01-16T11:06:47;5.45;;;2.78;;
62941;SDS011;49042;47.318;19.874;2024-01-16T11:09:53;4.90;;;1.98;;
62941;SDS011;49042;47.318;19.874;2024-01-16T11:12:55;9.77;;;2.10;;
62941;SDS011;49042;47.318;19.874;2024-01-16T11:16:01;15.20;;;2.47;;
62941;SDS011;49042;47.318;19.874;2024-01-16T11:19:04;7.03;;;2.25;;
62941;SDS011;49042;47.318;19.874;2024-01-16T11:22:29;4.40;;;2.20;;
62941;SDS011;49042;47.318;19.874;2024-01-16T11:25:32;6.22;;;2.33;;
62941;SDS011;49042;47.318;19.874;2024-01-16T11:28:34;12.95;;;5.72;;
62941;SDS011;49042;47.318;19.874;2024-01-16T11:31:36;3.30;;;2.40;;
62941;SDS011;49042;47.318;19.874;2024-01-16T11:37:43;11.15;;;6.43;;
62941;SDS011;49042;47.318;19.874;2024-01-16T11:40:45;4.22;;;2.90;;
62941;SDS011;49042;47.318;19.874;2024-01-16T11:43:49;7.32;;;2.90;;
62941;SDS011;49042;47.318;19.874;2024-01-16T11:47:00;8.15;;;3.10;;
62941;SDS011;49042;47.318;19.874;2024-01-16T11:50:10;4.50;;;2.50;;
62941;SDS011;49042;47.318;19.874;2024-01-16T12:00:19;12.93;;;4.22;;
62941;SDS011;49042;47.318;19.874;2024-01-16T12:03:22;16.15;;;5.65;;
62941;SDS011;49042;47.318;19.874;2024-01-16T12:06:35;4.95;;;2.78;;
62941;SDS011;49042;47.318;19.874;2024-01-16T12:09:39;10.82;;;4.85;;
62941;SDS011;49042;47.318;19.874;2024-01-16T12:12:40;27.80;;;10.85;;
62941;SDS011;49042;47.318;19.874;2024-01-16T12:15:42;17.95;;;8.10;;
62941;SDS011;49042;47.318;19.874;2024-01-16T12:18:44;15.23;;;7.22;;
62941;SDS011;49042;47.318;19.874;2024-01-16T12:21:49;11.70;;;3.30;;
62941;SDS011;49042;47.318;19.874;2024-01-16T12:24:55;23.38;;;9.35;;
62941;SDS011;49042;47.318;19.874;2024-01-16T12:27:59;8.70;;;4.50;;
62941;SDS011;49042;47.318;19.874;2024-01-16T12:31:01;6.90;;;4.82;;
62941;SDS011;49042;47.318;19.874;2024-01-16T12:34:08;6.87;;;2.95;;
62941;SDS011;49042;47.318;19.874;2024-01-16T12:37:11;5.00;;;3.08;;
62941;SDS011;49042;47.318;19.874;2024-01-16T12:40:14;5.10;;;3.00;;
62941;SDS011;49042;47.318;19.874;2024-01-16T12:43:16;5.35;;;3.15;;
62941;SDS011;49042;47.318;19.874;2024-01-16T12:46:19;8.95;;;4.20;;
62941;SDS011;49042;47.318;19.874;2024-01-16T12:49:22;2.92;;;2.00;;
62941;SDS011;49042;47.318;19.874;2024-01-16T12:52:24;3.47;;;2.37;;
62941;SDS011;49042;47.318;19.874;2024-01-16T12:55:27;5.32;;;2.53;;
62941;SDS011;49042;47.318;19.874;2024-01-16T12:58:32;4.87;;;2.75;;
62941;SDS011;49042;47.318;19.874;2024-01-16T13:01:42;6.10;;;2.80;;
62941;SDS011;49042;47.318;19.874;2024-01-16T13:04:47;9.85;;;3.17;;
62941;SDS011;49042;47.318;19.874;2024-01-16T13:08:08;9.52;;;2.97;;
62941;SDS011;49042;47.318;19.874;2024-01-16T13:11:10;9.00;;;3.40;;
62941;SDS011;49042;47.318;19.874;2024-01-16T13:14:12;6.90;;;3.62;;
62941;SDS011;49042;47.318;19.874;2024-01-16T13:17:13;5.53;;;3.67;;
62941;SDS011;49042;47.318;19.874;2024-01-16T13:20:15;10.88;;;4.65;;
62941;SDS011;49042;47.318;19.874;2024-01-16T13:23:18;7.95;;;3.53;;
62941;SDS011;49042;47.318;19.874;2024-01-16T13:26:20;6.55;;;2.85;;
62941;SDS011;49042;47.318;19.874;2024-01-16T13:29:21;6.40;;;3.00;;
62941;SDS011;49042;47.318;19.874;2024-01-16T13:32:23;4.70;;;2.83;;
62941;SDS011;49042;47.318;19.874;2024-01-16T13:35:25;4.40;;;2.78;;
62941;SDS011;49042;47.318;19.874;2024-01-16T13:38:27;12.93;;;3.25;;
62941;SDS011;49042;47.318;19.874;2024-01-16T13:41:29;7.85;;;2.80;;
62941;SDS011;49042;47.318;19.874;2024-01-16T13:44:31;5.47;;;2.65;;
62941;SDS011;49042;47.318;19.874;2024-01-16T13:47:33;7.05;;;2.53;;
62941;SDS011;49042;47.318;19.874;2024-01-16T13:50:35;5.30;;;3.10;;
62941;SDS011;49042;47.318;19.874;2024-01-16T13:53:37;4.00;;;2.25;;
62941;SDS011;49042;47.318;19.874;2024-01-16T13:56:38;8.82;;;3.78;;
62941;SDS011;49042;47.318;19.874;2024-01-16T14:00:01;5.03;;;2.42;;
62941;SDS011;49042;47.318;19.874;2024-01-16T14:03:04;12.37;;;4.62;;
62941;SDS011;49042;47.318;19.874;2024-01-16T14:06:08;15.40;;;6.20;;
62941;SDS011;49042;47.318;19.874;2024-01-16T14:09:10;8.60;;;3.75;;
62941;SDS011;49042;47.318;19.874;2024-01-16T14:12:12;5.07;;;2.47;;
62941;SDS011;49042;47.318;19.874;2024-01-16T14:15:16;6.25;;;2.20;;
62941;SDS011;49042;47.318;19.874;2024-01-16T14:18:25;7.82;;;2.17;;
62941;SDS011;49042;47.318;19.874;2024-01-16T14:21:27;5.07;;;2.37;;
62941;SDS011;49042;47.318;19.874;2024-01-16T14:24:29;6.20;;;2.00;;
62941;SDS011;49042;47.318;19.874;2024-01-16T14:27:30;12.25;;;2.95;;
62941;SDS011;49042;47.318;19.874;2024-01-16T14:30:33;8.20;;;2.50;;
62941;SDS011;49042;47.318;19.874;2024-01-16T14:33:38;4.25;;;2.47;;
62941;SDS011;49042;47.318;19.874;2024-01-16T14:36:40;5.05;;;2.30;;
62941;SDS011;49042;47.318;19.874;2024-01-16T14:39:43;4.55;;;2.33;;
62941;SDS011;49042;47.318;19.874;2024-01-16T14:42:46;9.77;;;2.70;;
62941;SDS011;49042;47.318;19.874;2024-01-16T14:45:52;4.43;;;2.70;;
62941;SDS011;49042;47.318;19.874;2024-01-16T14:48:54;5.10;;;2.37;;
62941;SDS011;49042;47.318;19.874;2024-01-16T14:51:56;5.12;;;2.85;;
62941;SDS011;49042;47.318;19.874;2024-01-16T14:55:00;6.37;;;2.92;;
62941;SDS011;49042;47.318;19.874;2024-01-16T14:58:03;6.57;;;3.00;;
62941;SDS011;49042;47.318;19.874;2024-01-16T15:01:05;6.87;;;2.80;;
62941;SDS011;49042;47.318;19.874;2024-01-16T15:04:08;4.80;;;2.75;;
62941;SDS011;49042;47.318;19.874;2024-01-16T15:07:11;4.90;;;2.83;;
62941;SDS011;49042;47.318;19.874;2024-01-16T15:10:13;10.45;;;3.92;;
62941;SDS011;49042;47.318;19.874;2024-01-16T15:13:18;7.40;;;3.40;;
62941;SDS011;49042;47.318;19.874;2024-01-16T15:16:19;9.75;;;4.10;;
62941;SDS011;49042;47.318;19.874;2024-01-16T15:19:21;25.75;;;9.43;;
62941;SDS011;49042;47.318;19.874;2024-01-16T15:22:23;16.45;;;7.85;;
62941;SDS011;49042;47.318;19.874;2024-01-16T15:25:25;8.98;;;5.50;;
62941;SDS011;49042;47.318;19.874;2024-01-16T15:28:26;15.48;;;6.87;;
62941;SDS011;49042;47.318;19.874;2024-01-16T15:31:28;11.27;;;4.62;;
62941;SDS011;49042;47.318;19.874;2024-01-16T15:34:30;9.15;;;4.00;;
62941;SDS011;49042;47.318;19.874;2024-01-16T15:37:32;11.80;;;7.20;;
62941;SDS011;49042;47.318;19.874;2024-01-16T15:40:37;8.95;;;5.25;;
62941;SDS011;49042;47.318;19.874;2024-01-16T15:43:39;10.40;;;4.85;;
62941;SDS011;49042;47.318;19.874;2024-01-16T15:47:00;10.88;;;5.20;;
62941;SDS011;49042;47.318;19.874;2024-01-16T15:50:04;11.27;;;7.32;;
62941;SDS011;49042;47.318;19.874;2024-01-16T15:53:06;12.65;;;6.35;;
62941;SDS011;49042;47.318;19.874;2024-01-16T15:56:08;16.62;;;6.50;;
62941;SDS011;49042;47.318;19.874;2024-01-16T15:59:10;8.70;;;5.25;;
62941;SDS011;49042;47.318;19.874;2024-01-16T16:02:12;10.52;;;5.90;;
62941;SDS011;49042;47.318;19.874;2024-01-16T16:05:14;9.52;;;5.90;;
62941;SDS011;49042;47.318;19.874;2024-01-16T16:08:16;9.70;;;5.37;;
62941;SDS011;49042;47.318;19.874;2024-01-16T16:11:18;10.18;;;5.43;;
62941;SDS011;49042;47.318;19.874;2024-01-16T16:14:19;9.35;;;5.10;;
62941;SDS011;49042;47.318;19.874;2024-01-16T16:17:21;13.85;;;6.55;;
62941;SDS011;49042;47.318;19.874;2024-01-16T16:20:23;23.80;;;8.07;;
62941;SDS011;49042;47.318;19.874;2024-01-16T16:23:26;13.35;;;6.78;;
62941;SDS011;49042;47.318;19.874;2024-01-16T16:26:28;22.05;;;8.40;;
62941;SDS011;49042;47.318;19.874;2024-01-16T16:29:30;17.52;;;6.93;;
62941;SDS011;49042;47.318;19.874;2024-01-16T16:32:32;14.38;;;7.30;;
62941;SDS011;49042;47.318;19.874;2024-01-16T16:35:34;13.00;;;7.45;;
62941;SDS011;49042;47.318;19.874;2024-01-16T16:38:36;19.55;;;7.97;;
62941;SDS011;49042;47.318;19.874;2024-01-16T16:41:42;26.60;;;9.88;;
62941;SDS011;49042;47.318;19.874;2024-01-16T16:44:45;51.53;;;18.17;;
62941;SDS011;49042;47.318;19.874;2024-01-16T16:47:47;66.30;;;31.02;;
62941;SDS011;49042;47.318;19.874;2024-01-16T16:50:48;47.08;;;20.77;;
62941;SDS011;49042;47.318;19.874;2024-01-16T16:53:50;20.05;;;10.05;;
62941;SDS011;49042;47.318;19.874;2024-01-16T16:56:52;18.62;;;8.20;;
62941;SDS011;49042;47.318;19.874;2024-01-16T16:59:56;21.05;;;11.73;;
62941;SDS011;49042;47.318;19.874;2024-01-16T17:02:59;24.70;;;9.73;;
62941;SDS011;49042;47.318;19.874;2024-01-16T17:06:01;29.23;;;12.82;;
62941;SDS011;49042;47.318;19.874;2024-01-16T17:09:03;49.35;;;22.77;;
62941;SDS011;49042;47.318;19.874;2024-01-16T17:12:08;34.03;;;17.00;;
62941;SDS011;49042;47.318;19.874;2024-01-16T17:15:10;25.80;;;13.70;;
62941;SDS011;49042;47.318;19.874;2024-01-16T17:18:12;22.62;;;11.75;;
62941;SDS011;49042;47.318;19.874;2024-01-16T17:21:14;20.12;;;11.23;;
62941;SDS011;49042;47.318;19.874;2024-01-16T17:24:17;25.15;;;12.52;;
62941;SDS011;49042;47.318;19.874;2024-01-16T17:27:19;17.92;;;9.48;;
62941;SDS011;49042;47.318;19.874;2024-01-16T17:30:22;22.73;;;9.73;;
62941;SDS011;49042;47.318;19.874;2024-01-16T17:33:24;21.83;;;11.12;;
62941;SDS011;49042;47.318;19.874;2024-01-16T17:36:27;19.37;;;11.30;;
62941;SDS011;49042;47.318;19.874;2024-01-16T17:39:30;29.00;;;13.85;;
62941;SDS011;49042;47.318;19.874;2024-01-16T17:42:32;28.40;;;14.77;;
62941;SDS011;49042;47.318;19.874;2024-01-16T17:45:34;23.95;;;12.32;;
62941;SDS011;49042;47.318;19.874;2024-01-16T17:48:35;18.17;;;10.82;;
62941;SDS011;49042;47.318;19.874;2024-01-16T17:51:38;25.02;;;12.00;;
62941;SDS011;49042;47.318;19.874;2024-01-16T17:54:40;21.62;;;11.45;;
62941;SDS011;49042;47.318;19.874;2024-01-16T17:57:42;18.87;;;11.75;;
62941;SDS011;49042;47.318;19.874;2024-01-16T18:00:43;21.70;;;11.80;;
62941;SDS011;49042;47.318;19.874;2024-01-16T18:03:45;21.90;;;11.82;;
62941;SDS011;49042;47.318;19.874;2024-01-16T18:06:49;18.25;;;9.98;;
62941;SDS011;49042;47.318;19.874;2024-01-16T18:09:51;20.37;;;11.18;;
62941;SDS011;49042;47.318;19.874;2024-01-16T18:12:53;19.05;;;11.20;;
62941;SDS011;49042;47.318;19.874;2024-01-16T18:15:54;34.40;;;21.12;;